sensor_id;sensor_type;location;lat;lon;timestamp;P1;durP1;ratioP1;P2;durP2;ratioP2
21636;SDS011;10980;49.596;6.142;2023-03-12T00:01:31;11.37;;;2.77;;
21636;SDS011;10980;49.596;6.142;2023-03-12T00:04:56;5.67;;;2.60;;
21636;SDS011;10980;49.596;6.142;2023-03-12T00:08:18;8.13;;;2.80;;
21636;SDS011;10980;49.596;6.142;2023-03-12T00:11:41;6.63;;;2.70;;
21636;SDS011;10980;49.596;6.142;2023-03-12T00:15:03;10.83;;;2.90;;
21636;SDS011;10980;49.596;6.142;2023-03-12T00:18:26;10.10;;;3.23;;
21636;SDS011;10980;49.596;6.142;2023-03-12T00:21:53;5.17;;;2.73;;
21636;SDS011;10980;49.596;6.142;2023-03-12T00:25:26;6.07;;;2.73;;
21636;SDS011;10980;49.596;6.142;2023-03-12T00:28:49;5.97;;;2.60;;
21636;SDS011;10980;49.596;6.142;2023-03-12T00:32:12;6.97;;;2.60;;
21636;SDS011;10980;49.596;6.142;2023-03-12T00:35:34;5.87;;;2.90;;
21636;SDS011;10980;49.596;6.142;2023-03-12T00:38:59;7.60;;;3.00;;
21636;SDS011;10980;49.596;6.142;2023-03-12T00:42:22;5.33;;;2.87;;
21636;SDS011;10980;49.596;6.142;2023-03-12T00:45:46;8.60;;;2.83;;
21636;SDS011;10980;49.596;6.142;2023-03-12T00:49:08;5.47;;;2.50;;
21636;SDS011;10980;49.596;6.142;2023-03-12T00:52:38;12.17;;;2.67;;
21636;SDS011;10980;49.596;6.142;2023-03-12T00:56:02;7.13;;;2.60;;
21636;SDS011;10980;49.596;6.142;2023-03-12T00:59:29;5.73;;;3.07;;
21636;SDS011;10980;49.596;6.142;2023-03-12T01:02:54;5.83;;;2.60;;
21636;SDS011;10980;49.596;6.142;2023-03-12T01:06:16;13.20;;;3.60;;
21636;SDS011;10980;49.596;6.142;2023-03-12T01:09:38;9.43;;;3.10;;
21636;SDS011;10980;49.596;6.142;2023-03-12T01:12:59;5.43;;;2.63;;
21636;SDS011;10980;49.596;6.142;2023-03-12T01:16:23;7.87;;;2.87;;
21636;SDS011;10980;49.596;6.142;2023-03-12T01:19:48;11.77;;;2.60;;
21636;SDS011;10980;49.596;6.142;2023-03-12T01:23:10;8.07;;;3.10;;
21636;SDS011;10980;49.596;6.142;2023-03-12T01:26:32;5.70;;;2.70;;
21636;SDS011;10980;49.596;6.142;2023-03-12T01:29:53;6.37;;;3.10;;
21636;SDS011;10980;49.596;6.142;2023-03-12T01:33:16;11.60;;;3.13;;
21636;SDS011;10980;49.596;6.142;2023-03-12T01:36:40;10.30;;;3.10;;
21636;SDS011;10980;49.596;6.142;2023-03-12T01:40:13;9.73;;;3.30;;
21636;SDS011;10980;49.596;6.142;2023-03-12T01:43:40;11.67;;;3.87;;
21636;SDS011;10980;49.596;6.142;2023-03-12T01:47:03;8.50;;;3.07;;
21636;SDS011;10980;49.596;6.142;2023-03-12T01:50:25;7.30;;;2.97;;
21636;SDS011;10980;49.596;6.142;2023-03-12T01:53:52;8.20;;;3.40;;
21636;SDS011;10980;49.596;6.142;2023-03-12T01:57:22;7.57;;;3.33;;
21636;SDS011;10980;49.596;6.142;2023-03-12T02:00:54;11.77;;;3.07;;
21636;SDS011;10980;49.596;6.142;2023-03-12T02:04:18;7.80;;;3.23;;
21636;SDS011;10980;49.596;6.142;2023-03-12T02:07:47;9.17;;;3.37;;
21636;SDS011;10980;49.596;6.142;2023-03-12T02:11:10;10.27;;;3.30;;
21636;SDS011;10980;49.596;6.142;2023-03-12T02:14:33;8.83;;;3.30;;
21636;SDS011;10980;49.596;6.142;2023-03-12T02:17:57;8.23;;;3.30;;
21636;SDS011;10980;49.596;6.142;2023-03-12T02:21:24;10.37;;;3.30;;
21636;SDS011;10980;49.596;6.142;2023-03-12T02:25:02;11.87;;;3.63;;
21636;SDS011;10980;49.596;6.142;2023-03-12T02:28:52;13.03;;;3.50;;
21636;SDS011;10980;49.596;6.142;2023-03-12T02:32:19;7.37;;;3.07;;
21636;SDS011;10980;49.596;6.142;2023-03-12T02:35:47;7.17;;;2.93;;
21636;SDS011;10980;49.596;6.142;2023-03-12T02:39:11;11.60;;;3.33;;
21636;SDS011;10980;49.596;6.142;2023-03-12T02:42:33;7.10;;;3.17;;
21636;SDS011;10980;49.596;6.142;2023-03-12T02:45:57;9.73;;;3.50;;
21636;SDS011;10980;49.596;6.142;2023-03-12T02:49:27;8.90;;;3.43;;
21636;SDS011;10980;49.596;6.142;2023-03-12T02:52:53;7.37;;;3.43;;
21636;SDS011;10980;49.596;6.142;2023-03-12T02:56:21;7.97;;;3.50;;
21636;SDS011;10980;49.596;6.142;2023-03-12T02:59:46;5.83;;;3.37;;
21636;SDS011;10980;49.596;6.142;2023-03-12T03:03:08;10.87;;;4.93;;
21636;SDS011;10980;49.596;6.142;2023-03-12T03:06:33;8.07;;;3.77;;
21636;SDS011;10980;49.596;6.142;2023-03-12T03:10:05;12.27;;;4.07;;
21636;SDS011;10980;49.596;6.142;2023-03-12T03:13:30;8.53;;;3.57;;
21636;SDS011;10980;49.596;6.142;2023-03-12T03:20:38;11.00;;;4.27;;
21636;SDS011;10980;49.596;6.142;2023-03-12T03:24:00;9.73;;;4.20;;
21636;SDS011;10980;49.596;6.142;2023-03-12T03:27:21;12.23;;;3.87;;
21636;SDS011;10980;49.596;6.142;2023-03-12T03:30:43;11.53;;;4.23;;
21636;SDS011;10980;49.596;6.142;2023-03-12T03:34:06;15.03;;;4.53;;
21636;SDS011;10980;49.596;6.142;2023-03-12T03:37:28;13.43;;;4.53;;
21636;SDS011;10980;49.596;6.142;2023-03-12T03:40:52;7.27;;;3.87;;
21636;SDS011;10980;49.596;6.142;2023-03-12T03:44:15;8.97;;;3.93;;
21636;SDS011;10980;49.596;6.142;2023-03-12T03:47:37;11.13;;;4.30;;
21636;SDS011;10980;49.596;6.142;2023-03-12T03:50:59;9.57;;;4.20;;
21636;SDS011;10980;49.596;6.142;2023-03-12T03:54:29;9.57;;;4.60;;
21636;SDS011;10980;49.596;6.142;2023-03-12T03:57:52;13.73;;;4.80;;
21636;SDS011;10980;49.596;6.142;2023-03-12T04:01:14;10.77;;;4.77;;
21636;SDS011;10980;49.596;6.142;2023-03-12T04:04:37;10.73;;;4.90;;
21636;SDS011;10980;49.596;6.142;2023-03-12T04:08:01;15.07;;;5.20;;
21636;SDS011;10980;49.596;6.142;2023-03-12T04:11:25;10.10;;;5.20;;
21636;SDS011;10980;49.596;6.142;2023-03-12T04:14:51;9.60;;;4.87;;
21636;SDS011;10980;49.596;6.142;2023-03-12T04:18:17;21.00;;;5.80;;
21636;SDS011;10980;49.596;6.142;2023-03-12T04:21:41;10.63;;;5.27;;
21636;SDS011;10980;49.596;6.142;2023-03-12T04:25:05;16.30;;;5.90;;
21636;SDS011;10980;49.596;6.142;2023-03-12T04:28:28;17.10;;;5.93;;
21636;SDS011;10980;49.596;6.142;2023-03-12T04:31:52;16.90;;;7.00;;
21636;SDS011;10980;49.596;6.142;2023-03-12T04:35:15;16.30;;;7.00;;
21636;SDS011;10980;49.596;6.142;2023-03-12T04:38:37;18.33;;;7.73;;
21636;SDS011;10980;49.596;6.142;2023-03-12T04:42:01;18.63;;;7.27;;
21636;SDS011;10980;49.596;6.142;2023-03-12T04:45:24;17.17;;;7.33;;
21636;SDS011;10980;49.596;6.142;2023-03-12T04:48:46;14.40;;;7.50;;
21636;SDS011;10980;49.596;6.142;2023-03-12T04:52:09;22.17;;;8.40;;
21636;SDS011;10980;49.596;6.142;2023-03-12T04:55:31;17.67;;;7.77;;
21636;SDS011;10980;49.596;6.142;2023-03-12T04:58:54;16.07;;;7.67;;
21636;SDS011;10980;49.596;6.142;2023-03-12T05:02:17;15.27;;;8.20;;
21636;SDS011;10980;49.596;6.142;2023-03-12T05:05:40;17.13;;;8.43;;
21636;SDS011;10980;49.596;6.142;2023-03-12T05:09:03;16.50;;;8.13;;
21636;SDS011;10980;49.596;6.142;2023-03-12T05:12:25;23.43;;;9.03;;
21636;SDS011;10980;49.596;6.142;2023-03-12T05:15:48;14.93;;;8.13;;
21636;SDS011;10980;49.596;6.142;2023-03-12T05:19:12;19.37;;;8.40;;
21636;SDS011;10980;49.596;6.142;2023-03-12T05:22:36;14.70;;;8.27;;
21636;SDS011;10980;49.596;6.142;2023-03-12T05:25:58;13.80;;;8.93;;
21636;SDS011;10980;49.596;6.142;2023-03-12T05:29:21;14.60;;;8.00;;
21636;SDS011;10980;49.596;6.142;2023-03-12T05:32:44;17.67;;;8.43;;
21636;SDS011;10980;49.596;6.142;2023-03-12T05:36:06;17.30;;;8.60;;
21636;SDS011;10980;49.596;6.142;2023-03-12T05:39:31;14.80;;;8.77;;
21636;SDS011;10980;49.596;6.142;2023-03-12T05:42:57;18.33;;;8.40;;
21636;SDS011;10980;49.596;6.142;2023-03-12T05:46:22;15.47;;;8.27;;
21636;SDS011;10980;49.596;6.142;2023-03-12T05:49:46;20.57;;;9.60;;
21636;SDS011;10980;49.596;6.142;2023-03-12T05:53:09;18.73;;;9.47;;
21636;SDS011;10980;49.596;6.142;2023-03-12T05:56:32;19.87;;;8.70;;
21636;SDS011;10980;49.596;6.142;2023-03-12T05:59:57;18.27;;;10.63;;
21636;SDS011;10980;49.596;6.142;2023-03-12T06:03:20;16.13;;;9.13;;
21636;SDS011;10980;49.596;6.142;2023-03-12T06:06:44;18.73;;;8.97;;
21636;SDS011;10980;49.596;6.142;2023-03-12T06:10:07;18.63;;;9.50;;
21636;SDS011;10980;49.596;6.142;2023-03-12T06:13:30;15.37;;;8.97;;
21636;SDS011;10980;49.596;6.142;2023-03-12T06:16:53;17.40;;;10.10;;
21636;SDS011;10980;49.596;6.142;2023-03-12T06:20:15;17.67;;;9.87;;
21636;SDS011;10980;49.596;6.142;2023-03-12T06:23:37;19.23;;;9.40;;
21636;SDS011;10980;49.596;6.142;2023-03-12T06:27:02;15.87;;;9.27;;
21636;SDS011;10980;49.596;6.142;2023-03-12T06:30:24;18.90;;;10.57;;
21636;SDS011;10980;49.596;6.142;2023-03-12T06:33:47;18.33;;;9.93;;
21636;SDS011;10980;49.596;6.142;2023-03-12T06:37:10;21.60;;;10.50;;
21636;SDS011;10980;49.596;6.142;2023-03-12T06:40:32;17.63;;;9.97;;
21636;SDS011;10980;49.596;6.142;2023-03-12T06:43:54;17.13;;;9.80;;
21636;SDS011;10980;49.596;6.142;2023-03-12T06:47:15;19.20;;;10.40;;
21636;SDS011;10980;49.596;6.142;2023-03-12T06:50:38;16.37;;;9.73;;
21636;SDS011;10980;49.596;6.142;2023-03-12T06:53:59;20.00;;;10.17;;
21636;SDS011;10980;49.596;6.142;2023-03-12T06:59:07;20.57;;;10.37;;
21636;SDS011;10980;49.596;6.142;2023-03-12T07:02:29;17.23;;;9.67;;
21636;SDS011;10980;49.596;6.142;2023-03-12T07:05:51;18.07;;;9.97;;
21636;SDS011;10980;49.596;6.142;2023-03-12T07:09:18;18.07;;;9.80;;
21636;SDS011;10980;49.596;6.142;2023-03-12T07:12:42;19.37;;;9.20;;
21636;SDS011;10980;49.596;6.142;2023-03-12T07:16:12;19.00;;;10.13;;
21636;SDS011;10980;49.596;6.142;2023-03-12T07:19:34;25.73;;;11.20;;
21636;SDS011;10980;49.596;6.142;2023-03-12T07:22:57;45.37;;;22.20;;
21636;SDS011;10980;49.596;6.142;2023-03-12T07:26:21;22.60;;;11.17;;
21636;SDS011;10980;49.596;6.142;2023-03-12T07:29:45;22.57;;;11.57;;
21636;SDS011;10980;49.596;6.142;2023-03-12T07:33:09;18.07;;;10.00;;
21636;SDS011;10980;49.596;6.142;2023-03-12T07:36:33;20.70;;;10.00;;
21636;SDS011;10980;49.596;6.142;2023-03-12T07:39:55;21.77;;;9.97;;
21636;SDS011;10980;49.596;6.142;2023-03-12T07:43:17;18.87;;;9.77;;
21636;SDS011;10980;49.596;6.142;2023-03-12T07:46:42;22.00;;;10.80;;
21636;SDS011;10980;49.596;6.142;2023-03-12T07:50:06;17.07;;;9.90;;
21636;SDS011;10980;49.596;6.142;2023-03-12T07:53:29;19.30;;;10.73;;
21636;SDS011;10980;49.596;6.142;2023-03-12T07:56:51;19.37;;;9.87;;
21636;SDS011;10980;49.596;6.142;2023-03-12T08:00:13;18.10;;;10.13;;
21636;SDS011;10980;49.596;6.142;2023-03-12T08:03:35;18.97;;;10.83;;
21636;SDS011;10980;49.596;6.142;2023-03-12T08:06:59;18.83;;;10.50;;
21636;SDS011;10980;49.596;6.142;2023-03-12T08:10:23;21.47;;;10.63;;
21636;SDS011;10980;49.596;6.142;2023-03-12T08:13:45;18.73;;;9.73;;
21636;SDS011;10980;49.596;6.142;2023-03-12T08:17:07;17.90;;;10.43;;
21636;SDS011;10980;49.596;6.142;2023-03-12T08:20:29;19.40;;;11.10;;
21636;SDS011;10980;49.596;6.142;2023-03-12T08:23:51;18.83;;;9.87;;
21636;SDS011;10980;49.596;6.142;2023-03-12T08:27:14;21.40;;;10.20;;
21636;SDS011;10980;49.596;6.142;2023-03-12T08:30:38;24.37;;;10.63;;
21636;SDS011;10980;49.596;6.142;2023-03-12T08:34:00;18.20;;;10.63;;
21636;SDS011;10980;49.596;6.142;2023-03-12T08:37:22;21.23;;;10.93;;
21636;SDS011;10980;49.596;6.142;2023-03-12T08:40:57;16.83;;;9.63;;
21636;SDS011;10980;49.596;6.142;2023-03-12T08:44:24;24.03;;;10.57;;
21636;SDS011;10980;49.596;6.142;2023-03-12T08:47:48;22.27;;;11.10;;
21636;SDS011;10980;49.596;6.142;2023-03-12T08:51:10;19.50;;;9.87;;
21636;SDS011;10980;49.596;6.142;2023-03-12T08:54:32;19.83;;;10.83;;
21636;SDS011;10980;49.596;6.142;2023-03-12T08:57:54;16.50;;;9.73;;
21636;SDS011;10980;49.596;6.142;2023-03-12T09:01:16;17.67;;;9.67;;
21636;SDS011;10980;49.596;6.142;2023-03-12T09:04:38;18.80;;;9.03;;
21636;SDS011;10980;49.596;6.142;2023-03-12T09:08:00;17.33;;;8.73;;
21636;SDS011;10980;49.596;6.142;2023-03-12T09:11:22;16.80;;;9.00;;
21636;SDS011;10980;49.596;6.142;2023-03-12T09:14:44;14.13;;;8.57;;
21636;SDS011;10980;49.596;6.142;2023-03-12T09:18:24;15.20;;;8.50;;
21636;SDS011;10980;49.596;6.142;2023-03-12T09:21:46;15.00;;;8.47;;
21636;SDS011;10980;49.596;6.142;2023-03-12T09:25:08;25.37;;;12.93;;
21636;SDS011;10980;49.596;6.142;2023-03-12T09:28:33;20.40;;;11.33;;
21636;SDS011;10980;49.596;6.142;2023-03-12T09:31:55;21.83;;;9.30;;
21636;SDS011;10980;49.596;6.142;2023-03-12T09:35:17;14.73;;;6.33;;
21636;SDS011;10980;49.596;6.142;2023-03-12T09:38:40;20.40;;;6.90;;
21636;SDS011;10980;49.596;6.142;2023-03-12T09:42:03;22.53;;;6.50;;
21636;SDS011;10980;49.596;6.142;2023-03-12T09:45:41;30.93;;;6.67;;
21636;SDS011;10980;49.596;6.142;2023-03-12T09:49:13;21.80;;;5.85;;
21636;SDS011;10980;49.596;6.142;2023-03-12T09:53:10;17.17;;;6.57;;
21636;SDS011;10980;49.596;6.142;2023-03-12T09:56:49;21.55;;;5.70;;
21636;SDS011;10980;49.596;6.142;2023-03-12T10:00:16;22.67;;;5.00;;
21636;SDS011;10980;49.596;6.142;2023-03-12T10:07:49;32.00;;;6.95;;
21636;SDS011;10980;49.596;6.142;2023-03-12T10:23:03;34.03;;;8.32;;
21636;SDS011;10980;49.596;6.142;2023-03-12T10:26:41;20.80;;;4.53;;
21636;SDS011;10980;49.596;6.142;2023-03-12T10:33:55;24.75;;;3.80;;
21636;SDS011;10980;49.596;6.142;2023-03-12T10:37:28;20.27;;;3.50;;
21636;SDS011;10980;49.596;6.142;2023-03-12T10:40:59;15.90;;;2.75;;
21636;SDS011;10980;49.596;6.142;2023-03-12T10:44:22;19.27;;;2.92;;
21636;SDS011;10980;49.596;6.142;2023-03-12T10:47:48;19.10;;;3.38;;
21636;SDS011;10980;49.596;6.142;2023-03-12T10:51:17;14.35;;;2.20;;
21636;SDS011;10980;49.596;6.142;2023-03-12T10:54:41;19.75;;;2.30;;
21636;SDS011;10980;49.596;6.142;2023-03-12T10:58:10;24.05;;;3.33;;
21636;SDS011;10980;49.596;6.142;2023-03-12T11:01:45;17.83;;;3.65;;
21636;SDS011;10980;49.596;6.142;2023-03-12T11:05:22;23.83;;;3.28;;
21636;SDS011;10980;49.596;6.142;2023-03-12T11:12:39;21.83;;;2.88;;
21636;SDS011;10980;49.596;6.142;2023-03-12T11:16:27;31.88;;;3.53;;
21636;SDS011;10980;49.596;6.142;2023-03-12T11:19:52;18.45;;;3.10;;
21636;SDS011;10980;49.596;6.142;2023-03-12T11:23:16;15.27;;;2.40;;
21636;SDS011;10980;49.596;6.142;2023-03-12T11:26:51;21.02;;;3.00;;
21636;SDS011;10980;49.596;6.142;2023-03-12T11:31:02;13.20;;;2.63;;
21636;SDS011;10980;49.596;6.142;2023-03-12T11:34:37;19.00;;;4.80;;
21636;SDS011;10980;49.596;6.142;2023-03-12T11:38:15;31.52;;;7.63;;
21636;SDS011;10980;49.596;6.142;2023-03-12T11:41:49;38.85;;;23.52;;
21636;SDS011;10980;49.596;6.142;2023-03-12T11:53:35;22.02;;;10.85;;
21636;SDS011;10980;49.596;6.142;2023-03-12T12:00:40;25.15;;;16.33;;
21636;SDS011;10980;49.596;6.142;2023-03-12T12:05:00;40.72;;;36.15;;
21636;SDS011;10980;49.596;6.142;2023-03-12T12:11:45;147.85;;;135.00;;
21636;SDS011;10980;49.596;6.142;2023-03-12T12:15:23;31.30;;;14.98;;
21636;SDS011;10980;49.596;6.142;2023-03-12T12:19:42;22.95;;;8.63;;
21636;SDS011;10980;49.596;6.142;2023-03-12T12:34:53;19.80;;;3.42;;
21636;SDS011;10980;49.596;6.142;2023-03-12T12:38:35;27.75;;;4.68;;
21636;SDS011;10980;49.596;6.142;2023-03-12T12:42:10;18.92;;;3.20;;
21636;SDS011;10980;49.596;6.142;2023-03-12T12:45:42;25.35;;;4.10;;
21636;SDS011;10980;49.596;6.142;2023-03-12T12:49:09;24.55;;;6.85;;
21636;SDS011;10980;49.596;6.142;2023-03-12T12:52:39;23.83;;;6.05;;
21636;SDS011;10980;49.596;6.142;2023-03-12T12:56:06;22.02;;;3.78;;
21636;SDS011;10980;49.596;6.142;2023-03-12T13:03:25;25.60;;;3.25;;
21636;SDS011;10980;49.596;6.142;2023-03-12T13:07:02;24.17;;;3.78;;
21636;SDS011;10980;49.596;6.142;2023-03-12T13:10:48;19.27;;;3.25;;
21636;SDS011;10980;49.596;6.142;2023-03-12T13:14:33;23.75;;;4.22;;
21636;SDS011;10980;49.596;6.142;2023-03-12T13:18:02;15.32;;;3.67;;
21636;SDS011;10980;49.596;6.142;2023-03-12T13:26:16;27.88;;;2.90;;
21636;SDS011;10980;49.596;6.142;2023-03-12T13:30:26;26.38;;;3.97;;
21636;SDS011;10980;49.596;6.142;2023-03-12T13:48:47;21.45;;;3.38;;
21636;SDS011;10980;49.596;6.142;2023-03-12T13:55:48;60.88;;;56.38;;
21636;SDS011;10980;49.596;6.142;2023-03-12T13:59:49;776.20;;;580.47;;
21636;SDS011;10980;49.596;6.142;2023-03-12T14:03:15;1999.90;;;999.90;;
21636;SDS011;10980;49.596;6.142;2023-03-12T14:15:04;1307.72;;;855.15;;
21636;SDS011;10980;49.596;6.142;2023-03-12T14:18:44;1555.38;;;974.83;;
21636;SDS011;10980;49.596;6.142;2023-03-12T14:22:07;165.40;;;144.93;;
21636;SDS011;10980;49.596;6.142;2023-03-12T14:25:35;35.28;;;24.50;;
21636;SDS011;10980;49.596;6.142;2023-03-12T14:32:35;30.73;;;18.42;;
21636;SDS011;10980;49.596;6.142;2023-03-12T14:36:03;21.52;;;11.63;;
21636;SDS011;10980;49.596;6.142;2023-03-12T14:39:59;15.68;;;7.30;;
21636;SDS011;10980;49.596;6.142;2023-03-12T14:43:38;21.90;;;3.47;;
21636;SDS011;10980;49.596;6.142;2023-03-12T14:47:04;15.73;;;2.80;;
21636;SDS011;10980;49.596;6.142;2023-03-12T14:50:38;23.30;;;3.53;;
21636;SDS011;10980;49.596;6.142;2023-03-12T14:54:02;21.83;;;3.45;;
21636;SDS011;10980;49.596;6.142;2023-03-12T14:57:24;19.83;;;2.50;;
21636;SDS011;10980;49.596;6.142;2023-03-12T15:01:00;15.38;;;2.33;;
21636;SDS011;10980;49.596;6.142;2023-03-12T15:04:26;25.95;;;3.67;;
21636;SDS011;10980;49.596;6.142;2023-03-12T15:11:39;14.45;;;2.60;;
21636;SDS011;10980;49.596;6.142;2023-03-12T15:15:09;17.95;;;2.70;;
21636;SDS011;10980;49.596;6.142;2023-03-12T15:18:48;20.58;;;3.25;;
21636;SDS011;10980;49.596;6.142;2023-03-12T15:22:21;27.70;;;3.58;;
21636;SDS011;10980;49.596;6.142;2023-03-12T15:25:48;17.48;;;2.92;;
21636;SDS011;10980;49.596;6.142;2023-03-12T15:29:50;16.27;;;3.20;;
21636;SDS011;10980;49.596;6.142;2023-03-12T15:36:46;19.50;;;2.72;;
21636;SDS011;10980;49.596;6.142;2023-03-12T15:43:44;13.30;;;2.92;;
21636;SDS011;10980;49.596;6.142;2023-03-12T15:47:14;17.23;;;2.33;;
21636;SDS011;10980;49.596;6.142;2023-03-12T15:50:45;17.63;;;3.70;;
21636;SDS011;10980;49.596;6.142;2023-03-12T15:57:46;11.95;;;2.13;;
21636;SDS011;10980;49.596;6.142;2023-03-12T16:01:14;22.67;;;3.13;;
21636;SDS011;10980;49.596;6.142;2023-03-12T16:04:44;16.27;;;2.85;;
21636;SDS011;10980;49.596;6.142;2023-03-12T16:08:13;16.15;;;2.95;;
21636;SDS011;10980;49.596;6.142;2023-03-12T16:11:40;16.33;;;2.47;;
21636;SDS011;10980;49.596;6.142;2023-03-12T16:15:04;22.50;;;2.50;;
21636;SDS011;10980;49.596;6.142;2023-03-12T16:18:26;16.38;;;2.08;;
21636;SDS011;10980;49.596;6.142;2023-03-12T16:21:49;14.75;;;2.35;;
21636;SDS011;10980;49.596;6.142;2023-03-12T16:25:12;16.75;;;2.55;;
21636;SDS011;10980;49.596;6.142;2023-03-12T16:28:35;17.95;;;2.50;;
21636;SDS011;10980;49.596;6.142;2023-03-12T16:31:57;19.83;;;2.30;;
21636;SDS011;10980;49.596;6.142;2023-03-12T16:35:27;18.67;;;2.05;;
21636;SDS011;10980;49.596;6.142;2023-03-12T16:38:53;12.10;;;2.50;;
21636;SDS011;10980;49.596;6.142;2023-03-12T16:42:15;18.67;;;2.83;;
21636;SDS011;10980;49.596;6.142;2023-03-12T16:45:41;18.58;;;2.85;;
21636;SDS011;10980;49.596;6.142;2023-03-12T16:49:08;18.05;;;2.45;;
21636;SDS011;10980;49.596;6.142;2023-03-12T16:52:39;22.15;;;7.38;;
21636;SDS011;10980;49.596;6.142;2023-03-12T16:56:03;272.67;;;243.27;;
21636;SDS011;10980;49.596;6.142;2023-03-12T16:59:33;39.78;;;15.13;;
21636;SDS011;10980;49.596;6.142;2023-03-12T17:03:04;24.23;;;4.70;;
21636;SDS011;10980;49.596;6.142;2023-03-12T17:06:27;263.98;;;234.07;;
21636;SDS011;10980;49.596;6.142;2023-03-12T17:09:50;74.78;;;68.90;;
21636;SDS011;10980;49.596;6.142;2023-03-12T17:13:21;1187.43;;;527.30;;
21636;SDS011;10980;49.596;6.142;2023-03-12T17:16:52;1999.90;;;999.90;;
21636;SDS011;10980;49.596;6.142;2023-03-12T17:20:17;1637.38;;;801.78;;
21636;SDS011;10980;49.596;6.142;2023-03-12T17:23:42;1999.90;;;999.90;;
21636;SDS011;10980;49.596;6.142;2023-03-12T17:27:06;1999.90;;;999.90;;
21636;SDS011;10980;49.596;6.142;2023-03-12T17:30:29;1999.90;;;999.90;;
21636;SDS011;10980;49.596;6.142;2023-03-12T17:33:52;1999.90;;;999.90;;
21636;SDS011;10980;49.596;6.142;2023-03-12T17:37:14;1390.30;;;552.75;;
21636;SDS011;10980;49.596;6.142;2023-03-12T17:40:39;1999.90;;;999.90;;
21636;SDS011;10980;49.596;6.142;2023-03-12T17:44:03;441.55;;;55.65;;
21636;SDS011;10980;49.596;6.142;2023-03-12T17:47:28;1999.90;;;999.90;;
21636;SDS011;10980;49.596;6.142;2023-03-12T17:50:53;1999.90;;;999.90;;
21636;SDS011;10980;49.596;6.142;2023-03-12T17:54:17;1287.53;;;362.10;;
21636;SDS011;10980;49.596;6.142;2023-03-12T17:57:39;1999.90;;;999.90;;
21636;SDS011;10980;49.596;6.142;2023-03-12T18:01:02;1999.90;;;999.90;;
21636;SDS011;10980;49.596;6.142;2023-03-12T18:04:24;1999.90;;;999.90;;
21636;SDS011;10980;49.596;6.142;2023-03-12T18:07:47;1999.90;;;999.90;;
21636;SDS011;10980;49.596;6.142;2023-03-12T18:11:12;1999.90;;;999.90;;
21636;SDS011;10980;49.596;6.142;2023-03-12T18:14:34;1999.90;;;999.90;;
21636;SDS011;10980;49.596;6.142;2023-03-12T18:17:56;1999.90;;;999.90;;
21636;SDS011;10980;49.596;6.142;2023-03-12T18:21:18;1999.90;;;999.90;;
21636;SDS011;10980;49.596;6.142;2023-03-12T18:24:41;1999.90;;;999.90;;
21636;SDS011;10980;49.596;6.142;2023-03-12T18:28:03;1999.90;;;999.90;;
21636;SDS011;10980;49.596;6.142;2023-03-12T18:31:26;1143.18;;;488.73;;
21636;SDS011;10980;49.596;6.142;2023-03-12T18:34:49;1647.22;;;771.28;;
21636;SDS011;10980;49.596;6.142;2023-03-12T18:38:14;1703.35;;;804.35;;
21636;SDS011;10980;49.596;6.142;2023-03-12T18:41:36;1371.45;;;632.13;;
21636;SDS011;10980;49.596;6.142;2023-03-12T18:45:01;1999.90;;;999.90;;
21636;SDS011;10980;49.596;6.142;2023-03-12T18:48:24;1999.90;;;999.90;;
21636;SDS011;10980;49.596;6.142;2023-03-12T18:51:46;1999.90;;;999.90;;
21636;SDS011;10980;49.596;6.142;2023-03-12T18:55:13;1999.90;;;999.90;;
21636;SDS011;10980;49.596;6.142;2023-03-12T18:58:35;1999.90;;;999.90;;
21636;SDS011;10980;49.596;6.142;2023-03-12T19:01:58;1300.97;;;541.28;;
21636;SDS011;10980;49.596;6.142;2023-03-12T19:05:20;1999.90;;;648.40;;
21636;SDS011;10980;49.596;6.142;2023-03-12T19:08:42;1999.90;;;936.20;;
21636;SDS011;10980;49.596;6.142;2023-03-12T19:12:04;1999.90;;;870.83;;
21636;SDS011;10980;49.596;6.142;2023-03-12T19:15:26;511.98;;;210.73;;
21636;SDS011;10980;49.596;6.142;2023-03-12T19:18:48;23.05;;;12.43;;
21636;SDS011;10980;49.596;6.142;2023-03-12T19:22:11;23.60;;;3.13;;
21636;SDS011;10980;49.596;6.142;2023-03-12T19:25:32;17.58;;;2.88;;
21636;SDS011;10980;49.596;6.142;2023-03-12T19:29:00;17.33;;;2.47;;
21636;SDS011;10980;49.596;6.142;2023-03-12T19:32:22;17.67;;;2.75;;
21636;SDS011;10980;49.596;6.142;2023-03-12T19:35:54;16.13;;;2.55;;
21636;SDS011;10980;49.596;6.142;2023-03-12T19:39:17;15.48;;;2.42;;
21636;SDS011;10980;49.596;6.142;2023-03-12T19:42:41;21.17;;;2.30;;
21636;SDS011;10980;49.596;6.142;2023-03-12T19:46:03;17.10;;;3.05;;
21636;SDS011;10980;49.596;6.142;2023-03-12T19:49:25;16.42;;;2.78;;
21636;SDS011;10980;49.596;6.142;2023-03-12T19:52:47;18.40;;;2.65;;
21636;SDS011;10980;49.596;6.142;2023-03-12T19:56:09;16.70;;;2.80;;
21636;SDS011;10980;49.596;6.142;2023-03-12T19:59:31;27.48;;;3.13;;
21636;SDS011;10980;49.596;6.142;2023-03-12T20:02:53;16.38;;;3.05;;
21636;SDS011;10980;49.596;6.142;2023-03-12T20:06:15;15.18;;;2.47;;
21636;SDS011;10980;49.596;6.142;2023-03-12T20:09:37;18.88;;;2.72;;
21636;SDS011;10980;49.596;6.142;2023-03-12T20:12:59;21.95;;;2.95;;
21636;SDS011;10980;49.596;6.142;2023-03-12T20:16:20;14.88;;;2.63;;
21636;SDS011;10980;49.596;6.142;2023-03-12T20:19:43;29.08;;;4.13;;
21636;SDS011;10980;49.596;6.142;2023-03-12T20:23:04;20.58;;;3.05;;
21636;SDS011;10980;49.596;6.142;2023-03-12T20:26:28;20.35;;;3.17;;
21636;SDS011;10980;49.596;6.142;2023-03-12T20:29:50;18.05;;;3.00;;
21636;SDS011;10980;49.596;6.142;2023-03-12T20:33:12;11.43;;;2.97;;
21636;SDS011;10980;49.596;6.142;2023-03-12T20:36:36;19.95;;;3.35;;
21636;SDS011;10980;49.596;6.142;2023-03-12T20:39:59;21.48;;;3.55;;
21636;SDS011;10980;49.596;6.142;2023-03-12T20:43:22;21.65;;;3.35;;
21636;SDS011;10980;49.596;6.142;2023-03-12T20:46:45;28.08;;;3.97;;
21636;SDS011;10980;49.596;6.142;2023-03-12T20:50:08;19.65;;;3.17;;
21636;SDS011;10980;49.596;6.142;2023-03-12T20:53:30;17.33;;;2.58;;
21636;SDS011;10980;49.596;6.142;2023-03-12T20:56:52;19.08;;;2.50;;
21636;SDS011;10980;49.596;6.142;2023-03-12T21:00:14;19.98;;;3.47;;
21636;SDS011;10980;49.596;6.142;2023-03-12T21:03:36;27.27;;;3.67;;
21636;SDS011;10980;49.596;6.142;2023-03-12T21:06:58;29.27;;;3.92;;
21636;SDS011;10980;49.596;6.142;2023-03-12T21:10:20;20.42;;;3.05;;
21636;SDS011;10980;49.596;6.142;2023-03-12T21:13:42;18.87;;;3.00;;
21636;SDS011;10980;49.596;6.142;2023-03-12T21:17:04;20.80;;;3.10;;
21636;SDS011;10980;49.596;6.142;2023-03-12T21:20:26;17.20;;;3.33;;
21636;SDS011;10980;49.596;6.142;2023-03-12T21:23:48;19.25;;;2.72;;
21636;SDS011;10980;49.596;6.142;2023-03-12T21:27:10;21.13;;;3.35;;
21636;SDS011;10980;49.596;6.142;2023-03-12T21:30:33;15.43;;;3.47;;
21636;SDS011;10980;49.596;6.142;2023-03-12T21:33:56;20.95;;;4.15;;
21636;SDS011;10980;49.596;6.142;2023-03-12T21:37:18;20.15;;;3.63;;
21636;SDS011;10980;49.596;6.142;2023-03-12T21:40:40;34.17;;;3.63;;
21636;SDS011;10980;49.596;6.142;2023-03-12T21:44:03;22.52;;;3.70;;
21636;SDS011;10980;49.596;6.142;2023-03-12T21:47:25;24.95;;;3.22;;
21636;SDS011;10980;49.596;6.142;2023-03-12T21:50:47;20.77;;;2.92;;
21636;SDS011;10980;49.596;6.142;2023-03-12T21:54:09;24.00;;;2.83;;
21636;SDS011;10980;49.596;6.142;2023-03-12T21:57:31;22.08;;;3.80;;
21636;SDS011;10980;49.596;6.142;2023-03-12T22:01:03;18.92;;;2.75;;
21636;SDS011;10980;49.596;6.142;2023-03-12T22:04:33;20.65;;;3.10;;